createdAt,value
2017-10-21T00:00:04.810Z,3.23
2017-10-21T00:02:31.264Z,2.80
2017-10-21T00:04:57.592Z,3.70
2017-10-21T00:07:23.769Z,3.50
2017-10-21T00:09:49.964Z,4.00
2017-10-21T00:12:16.217Z,3.67
2017-10-21T00:14:42.401Z,3.60
2017-10-21T00:17:08.922Z,3.97
2017-10-21T00:19:35.259Z,3.07
2017-10-21T00:22:01.456Z,3.20
2017-10-21T00:24:27.933Z,3.43
2017-10-21T00:26:54.181Z,3.80
2017-10-21T00:29:20.377Z,3.20
2017-10-21T00:31:46.561Z,2.90
2017-10-21T00:34:12.798Z,3.03
2017-10-21T00:36:38.998Z,2.60
2017-10-21T00:39:05.172Z,3.17
2017-10-21T00:41:31.714Z,3.67
2017-10-21T00:43:58.251Z,3.13
2017-10-21T00:46:24.448Z,3.33
2017-10-21T00:48:51.163Z,3.10
2017-10-21T00:51:17.649Z,3.40
2017-10-21T00:53:43.837Z,3.30
2017-10-21T00:56:10.208Z,3.20
2017-10-21T00:58:36.412Z,3.00
2017-10-21T01:01:02.795Z,2.80
2017-10-21T01:03:29.147Z,3.37
2017-10-21T01:05:55.329Z,3.20
2017-10-21T01:08:21.527Z,3.00
2017-10-21T01:10:48.090Z,3.20
2017-10-21T01:13:14.349Z,3.40
2017-10-21T01:15:40.560Z,3.10
2017-10-21T01:18:06.793Z,3.13
2017-10-21T01:20:33.001Z,3.03
2017-10-21T01:22:59.219Z,2.77
2017-10-21T01:25:25.467Z,2.90
2017-10-21T01:27:51.672Z,2.93
2017-10-21T01:30:18.222Z,2.80
2017-10-21T01:32:44.478Z,3.10
2017-10-21T01:35:11.039Z,2.50
2017-10-21T01:37:37.271Z,3.33
2017-10-21T01:40:03.562Z,3.30
2017-10-21T01:42:29.813Z,3.17
2017-10-21T01:44:56.066Z,2.70
2017-10-21T01:47:22.398Z,2.77
2017-10-21T01:49:48.613Z,3.40
2017-10-21T01:52:14.874Z,2.80
2017-10-21T01:54:41.301Z,3.30
2017-10-21T01:57:07.856Z,3.07
2017-10-21T01:59:34.394Z,2.87
2017-10-21T02:02:00.902Z,2.90
2017-10-21T02:04:27.104Z,2.90
2017-10-21T02:06:53.694Z,2.73
2017-10-21T02:09:20.228Z,2.83
2017-10-21T02:11:46.543Z,2.70
2017-10-21T02:14:12.742Z,2.60
2017-10-21T02:16:38.942Z,3.10
2017-10-21T02:19:05.605Z,3.00
2017-10-21T02:21:31.822Z,3.00
2017-10-21T02:24:04.897Z,2.60
2017-10-21T02:26:31.400Z,2.77
2017-10-21T02:28:57.670Z,2.80
2017-10-21T02:31:23.891Z,2.90
2017-10-21T02:33:50.112Z,2.60
2017-10-21T02:36:16.362Z,2.67
2017-10-21T02:38:42.574Z,2.80
2017-10-21T02:41:09.178Z,3.03
2017-10-21T02:43:35.403Z,2.90
2017-10-21T02:46:01.844Z,2.60
2017-10-21T02:48:28.094Z,2.60
2017-10-21T02:50:54.601Z,3.33
2017-10-21T02:53:21.136Z,2.90
2017-10-21T02:55:47.489Z,2.73
2017-10-21T02:58:13.706Z,2.80
2017-10-21T03:00:40.235Z,2.80
2017-10-21T03:03:06.826Z,2.70
2017-10-21T03:05:33.058Z,2.87
2017-10-21T03:07:59.302Z,2.30
2017-10-21T03:10:25.646Z,2.83
2017-10-21T03:12:51.840Z,2.40
2017-10-21T03:15:18.318Z,2.60
2017-10-21T03:17:44.852Z,2.70
2017-10-21T03:20:11.050Z,3.43
2017-10-21T03:22:37.272Z,2.40
2017-10-21T03:25:03.485Z,2.27
2017-10-21T03:27:29.754Z,2.83
2017-10-21T03:29:55.950Z,2.57
2017-10-21T03:32:22.430Z,3.17
2017-10-21T03:34:48.761Z,2.70
2017-10-21T03:37:14.983Z,2.90
2017-10-21T03:39:41.181Z,2.57
2017-10-21T03:42:07.802Z,3.40
2017-10-21T03:44:33.996Z,2.50
2017-10-21T03:47:00.510Z,2.53
2017-10-21T03:49:26.761Z,2.30
2017-10-21T03:51:52.937Z,3.13
2017-10-21T03:54:19.134Z,2.90
2017-10-21T03:56:45.369Z,2.60
2017-10-21T03:59:11.565Z,2.87
2017-10-21T04:01:37.797Z,3.07
2017-10-21T04:04:04.329Z,2.50
2017-10-21T04:06:30.748Z,2.67
2017-10-21T04:08:57.187Z,2.57
2017-10-21T04:11:23.766Z,2.80
2017-10-21T04:13:49.974Z,2.20
2017-10-21T04:16:16.166Z,2.20
2017-10-21T04:18:42.423Z,2.40
2017-10-21T04:21:08.630Z,2.53
2017-10-21T04:23:35.170Z,2.30
2017-10-21T04:26:01.810Z,2.27
2017-10-21T04:28:28.006Z,2.70
2017-10-21T04:30:54.194Z,2.70
2017-10-21T04:33:21.079Z,2.50
2017-10-21T04:35:47.279Z,2.10
2017-10-21T04:38:13.472Z,2.50
2017-10-21T04:40:39.793Z,2.60
2017-10-21T04:43:06.222Z,2.43
2017-10-21T04:45:32.420Z,2.33
2017-10-21T04:47:58.995Z,2.33
2017-10-21T04:50:25.179Z,2.90
2017-10-21T04:52:51.646Z,2.13
2017-10-21T04:55:17.982Z,2.53
2017-10-21T04:57:44.216Z,2.37
2017-10-21T05:00:10.407Z,2.10
2017-10-21T05:02:37.114Z,1.97
2017-10-21T05:05:03.517Z,2.60
2017-10-21T05:07:29.701Z,2.50
2017-10-21T05:09:56.374Z,2.70
2017-10-21T05:12:22.902Z,2.10
2017-10-21T05:14:49.438Z,2.20
2017-10-21T05:17:16.123Z,2.20
2017-10-21T05:19:42.362Z,2.17
2017-10-21T05:22:08.834Z,2.07
2017-10-21T05:24:35.079Z,2.57
2017-10-21T05:27:01.267Z,2.63
2017-10-21T05:29:27.730Z,2.17
2017-10-21T05:31:54.053Z,2.10
2017-10-21T05:34:20.233Z,2.20
2017-10-21T05:36:46.423Z,2.60
2017-10-21T05:39:12.758Z,2.40
2017-10-21T05:41:39.273Z,2.40
2017-10-21T05:44:05.476Z,2.13
2017-10-21T05:46:31.827Z,2.33
2017-10-21T05:48:58.021Z,2.60
2017-10-21T05:51:24.498Z,2.13
2017-10-21T05:53:50.763Z,1.87
2017-10-21T05:56:16.940Z,2.60
2017-10-21T05:58:43.183Z,2.23
2017-10-21T06:01:09.480Z,2.33
2017-10-21T06:03:35.714Z,2.67
2017-10-21T06:06:02.227Z,2.23
2017-10-21T06:08:28.533Z,1.97
2017-10-21T06:10:54.725Z,2.20
2017-10-21T06:13:20.978Z,2.47
2017-10-21T06:15:47.264Z,1.87
2017-10-21T06:18:13.498Z,2.20
2017-10-21T06:20:39.716Z,2.00
2017-10-21T06:23:06.199Z,2.40
2017-10-21T06:25:32.391Z,1.90
2017-10-21T06:27:58.584Z,2.30
2017-10-21T06:30:24.879Z,2.27
2017-10-21T06:32:51.336Z,2.30
2017-10-21T06:35:17.531Z,2.07
2017-10-21T06:37:44.772Z,2.23
2017-10-21T06:40:11.019Z,2.30
2017-10-21T06:42:37.235Z,2.20
2017-10-21T06:45:03.772Z,2.03
2017-10-21T06:47:30.350Z,2.07
2017-10-21T06:49:56.544Z,2.10
2017-10-21T06:52:23.065Z,2.13
2017-10-21T06:54:49.755Z,2.33
2017-10-21T06:57:15.970Z,2.33
2017-10-21T06:59:42.384Z,2.33
2017-10-21T07:02:08.611Z,2.10
2017-10-21T07:04:34.929Z,2.37
2017-10-21T07:07:01.112Z,2.00
2017-10-21T07:09:27.496Z,2.40
2017-10-21T07:11:53.778Z,2.30
2017-10-21T07:14:20.015Z,2.43
2017-10-21T07:16:46.206Z,1.90
2017-10-21T07:19:13.682Z,2.10
2017-10-21T07:21:39.865Z,1.77
2017-10-21T07:24:07.309Z,1.90
2017-10-21T07:26:33.535Z,2.20
2017-10-21T07:28:59.727Z,2.40
2017-10-21T07:31:25.918Z,2.00
2017-10-21T07:33:52.262Z,1.80
2017-10-21T07:36:18.448Z,2.27
2017-10-21T07:38:44.649Z,1.63
2017-10-21T07:41:11.500Z,1.70
2017-10-21T07:43:37.681Z,2.00
2017-10-21T07:46:03.881Z,2.33
2017-10-21T07:48:30.126Z,2.10
2017-10-21T07:50:56.304Z,2.00
2017-10-21T07:53:22.490Z,1.90
2017-10-21T07:55:48.708Z,2.40
2017-10-21T07:58:15.035Z,1.73
2017-10-21T08:00:41.237Z,2.03
2017-10-21T08:03:07.443Z,1.90
2017-10-21T08:05:33.705Z,1.77
2017-10-21T08:07:59.897Z,1.60
2017-10-21T08:10:26.334Z,2.43
2017-10-21T08:12:52.554Z,2.23
2017-10-21T08:15:18.727Z,1.97
2017-10-21T08:17:44.951Z,1.90
2017-10-21T08:20:11.139Z,1.70
2017-10-21T08:22:37.398Z,2.17
2017-10-21T08:25:03.819Z,1.70
2017-10-21T08:27:30.010Z,2.00
2017-10-21T08:29:56.511Z,1.83
2017-10-21T08:32:22.694Z,2.03
2017-10-21T08:34:49.158Z,1.70
2017-10-21T08:37:15.485Z,1.80
2017-10-21T08:39:41.742Z,2.10
2017-10-21T08:42:07.972Z,1.90
2017-10-21T08:44:34.632Z,1.90
2017-10-21T08:47:00.827Z,1.73
2017-10-21T08:49:27.006Z,1.87
2017-10-21T08:51:53.250Z,1.50
2017-10-21T08:54:19.693Z,1.87
2017-10-21T08:56:45.897Z,2.00
2017-10-21T08:59:12.382Z,1.90
2017-10-21T09:01:38.619Z,1.90
2017-10-21T09:04:04.858Z,1.93
2017-10-21T09:06:31.301Z,2.00
2017-10-21T09:08:57.493Z,1.93
2017-10-21T09:11:24.121Z,1.70
2017-10-21T09:13:50.304Z,1.83
2017-10-21T09:16:16.586Z,1.83
2017-10-21T09:18:42.841Z,1.73
2017-10-21T09:21:09.047Z,1.60
2017-10-21T09:23:35.277Z,1.67
2017-10-21T09:26:01.585Z,1.70
2017-10-21T09:28:27.772Z,1.90
2017-10-21T09:30:53.970Z,1.80
2017-10-21T09:33:20.211Z,1.87
2017-10-21T09:35:46.397Z,2.10
2017-10-21T09:38:12.577Z,2.20
2017-10-21T09:40:38.922Z,1.50
2017-10-21T09:43:05.116Z,1.97
2017-10-21T09:45:31.302Z,1.67
2017-10-21T09:47:57.984Z,1.83
2017-10-21T09:50:24.214Z,1.87
2017-10-21T09:52:50.413Z,1.83
2017-10-21T09:55:16.695Z,1.70
2017-10-21T09:57:43.109Z,1.60
2017-10-21T10:00:09.549Z,1.63
2017-10-21T10:02:35.896Z,1.60
2017-10-21T10:05:02.357Z,1.87
2017-10-21T10:07:28.568Z,1.70
2017-10-21T10:09:54.907Z,1.70
2017-10-21T10:12:21.103Z,1.90
2017-10-21T10:14:47.300Z,1.60
2017-10-21T10:17:13.674Z,1.70
2017-10-21T10:19:39.887Z,1.60
2017-10-21T10:22:06.100Z,1.80
2017-10-21T10:24:32.447Z,1.60
2017-10-21T10:26:58.670Z,1.57
2017-10-21T10:29:25.099Z,1.90
2017-10-21T10:31:51.319Z,1.57
2017-10-21T10:34:17.756Z,1.70
2017-10-21T10:36:43.957Z,1.67
2017-10-21T10:39:10.164Z,1.63
2017-10-21T10:41:36.401Z,1.83
2017-10-21T10:44:03.243Z,1.60
2017-10-21T10:46:29.492Z,1.60
2017-10-21T10:48:55.700Z,1.70
2017-10-21T10:51:22.229Z,1.50
2017-10-21T10:53:48.416Z,1.60
2017-10-21T10:56:14.850Z,1.80
2017-10-21T10:58:41.886Z,1.40
2017-10-21T11:01:08.309Z,1.33
2017-10-21T11:03:34.522Z,1.70
2017-10-21T11:06:00.771Z,1.70
2017-10-21T11:08:26.980Z,1.40
2017-10-21T11:10:53.164Z,1.73
2017-10-21T11:13:19.382Z,1.60
2017-10-21T11:15:45.561Z,1.53
2017-10-21T11:18:12.378Z,2.07
2017-10-21T11:20:38.554Z,1.57
2017-10-21T11:23:04.758Z,1.30
2017-10-21T11:25:31.315Z,1.40
2017-10-21T11:27:57.499Z,1.80
2017-10-21T11:30:23.693Z,1.50
2017-10-21T11:32:49.931Z,1.40
2017-10-21T11:35:16.269Z,1.73
2017-10-21T11:37:42.475Z,1.60
2017-10-21T11:40:08.951Z,1.60
2017-10-21T11:42:35.159Z,1.70
2017-10-21T11:45:01.337Z,1.67
2017-10-21T11:47:27.806Z,1.70
2017-10-21T11:49:53.978Z,1.80
2017-10-21T11:52:20.234Z,1.83
2017-10-21T11:54:46.573Z,1.50
2017-10-21T11:57:13.050Z,1.60
2017-10-21T11:59:39.586Z,1.77
2017-10-21T12:02:05.812Z,1.37
2017-10-21T12:04:31.991Z,1.57
2017-10-21T12:06:58.373Z,1.57
2017-10-21T12:09:24.553Z,1.40
2017-10-21T12:11:50.755Z,1.60
2017-10-21T12:14:17.014Z,1.50
2017-10-21T12:16:43.439Z,1.67
2017-10-21T12:19:09.646Z,1.50
2017-10-21T12:21:35.891Z,1.50
2017-10-21T12:24:02.097Z,1.40
2017-10-21T12:26:28.525Z,1.60
2017-10-21T12:28:54.756Z,1.30
2017-10-21T12:31:20.941Z,2.03
2017-10-21T12:33:47.142Z,2.10
2017-10-21T12:36:13.353Z,1.63
2017-10-21T12:38:39.698Z,1.40
2017-10-21T12:41:05.902Z,1.73
2017-10-21T12:43:38.244Z,1.40
2017-10-21T12:46:04.503Z,1.50
2017-10-21T12:48:30.695Z,1.53
2017-10-21T12:50:56.919Z,1.77
2017-10-21T12:53:23.225Z,1.47
2017-10-21T12:55:49.414Z,1.33
2017-10-21T12:58:15.612Z,1.70
2017-10-21T13:00:42.013Z,1.33
2017-10-21T13:03:08.202Z,1.20
2017-10-21T13:05:34.390Z,1.53
2017-10-21T13:08:00.650Z,1.60
2017-10-21T13:10:26.843Z,1.63
2017-10-21T13:12:53.280Z,1.70
2017-10-21T13:15:19.861Z,1.73
2017-10-21T13:17:46.067Z,1.30
2017-10-21T13:20:12.263Z,2.00
2017-10-21T13:22:38.512Z,1.50
2017-10-21T13:25:04.702Z,1.60
2017-10-21T13:27:31.176Z,1.50
2017-10-21T13:29:57.414Z,1.23
2017-10-21T13:32:23.598Z,1.43
2017-10-21T13:34:49.835Z,1.37
2017-10-21T13:37:16.188Z,1.60
2017-10-21T13:39:42.720Z,1.43
2017-10-21T13:42:08.913Z,1.73
2017-10-21T13:44:35.126Z,1.90
2017-10-21T13:47:01.326Z,1.80
2017-10-21T13:49:27.706Z,1.57
2017-10-21T13:51:54.274Z,1.37
2017-10-21T13:54:20.474Z,1.23
2017-10-21T13:56:47.193Z,1.50
2017-10-21T13:59:13.623Z,1.50
2017-10-21T14:01:39.866Z,1.77
2017-10-21T14:04:06.421Z,1.60
2017-10-21T14:06:32.679Z,1.50
2017-10-21T14:08:58.976Z,2.00
2017-10-21T14:11:25.311Z,1.70
2017-10-21T14:13:51.606Z,1.50
2017-10-21T14:16:17.867Z,1.10
2017-10-21T14:18:44.304Z,1.63
2017-10-21T14:21:10.582Z,1.33
2017-10-21T14:23:36.827Z,1.40
2017-10-21T14:26:03.198Z,1.43
2017-10-21T14:28:29.429Z,1.50
2017-10-21T14:30:55.733Z,1.50
2017-10-21T14:33:22.007Z,1.50
2017-10-21T14:35:48.629Z,1.70
2017-10-21T14:38:14.860Z,1.90
2017-10-21T14:40:41.395Z,1.30
2017-10-21T14:43:07.893Z,1.70
2017-10-21T14:45:34.142Z,1.40
2017-10-21T14:48:00.386Z,1.70
2017-10-21T14:50:26.676Z,1.60
2017-10-21T14:52:52.900Z,1.47
2017-10-21T14:55:19.185Z,1.40
2017-10-21T14:57:45.629Z,1.77
2017-10-21T15:00:12.142Z,1.70
2017-10-21T15:02:38.416Z,1.37
2017-10-21T15:05:04.708Z,1.30
2017-10-21T15:07:30.988Z,1.40
2017-10-21T15:09:57.207Z,1.40
2017-10-21T15:12:23.946Z,1.30
2017-10-21T15:14:50.213Z,1.80
2017-10-21T15:17:16.460Z,1.30
2017-10-21T15:19:42.828Z,1.70
2017-10-21T15:22:09.070Z,1.33
2017-10-21T15:24:35.647Z,1.40
2017-10-21T15:27:02.058Z,1.50
2017-10-21T15:29:28.340Z,1.50
2017-10-21T15:31:54.589Z,1.20
2017-10-21T15:34:21.206Z,1.33
2017-10-21T15:36:47.471Z,1.73
2017-10-21T15:39:13.731Z,1.50
2017-10-21T15:41:40.235Z,1.20
2017-10-21T15:44:06.504Z,1.50
2017-10-21T15:46:32.735Z,1.60
2017-10-21T15:48:59.315Z,1.90
2017-10-21T15:51:25.588Z,1.40
2017-10-21T15:53:52.132Z,1.30
2017-10-21T15:56:18.457Z,1.67
2017-10-21T15:58:44.713Z,1.40
2017-10-21T16:01:10.972Z,1.80
2017-10-21T16:03:37.283Z,1.50
2017-10-21T16:06:03.542Z,1.50
2017-10-21T16:08:29.818Z,1.50
2017-10-21T16:10:56.305Z,1.80
2017-10-21T16:13:22.563Z,1.60
2017-10-21T16:15:48.810Z,1.37
2017-10-21T16:18:15.104Z,1.20
2017-10-21T16:20:41.315Z,1.60
2017-10-21T16:23:07.894Z,1.70
2017-10-21T16:25:34.258Z,1.47
2017-10-21T16:28:00.757Z,1.40
2017-10-21T16:30:27.000Z,1.33
2017-10-21T16:32:53.304Z,1.47
2017-10-21T16:35:19.551Z,1.67
2017-10-21T16:37:45.997Z,1.67
2017-10-21T16:40:12.670Z,1.60
2017-10-21T16:42:38.928Z,1.50
2017-10-21T16:45:05.181Z,1.30
2017-10-21T16:47:31.541Z,1.40
2017-10-21T16:49:57.779Z,1.30
2017-10-21T16:52:24.371Z,1.53
2017-10-21T16:54:50.873Z,1.43
2017-10-21T16:57:17.106Z,1.40
2017-10-21T16:59:43.343Z,1.43
2017-10-21T17:02:09.713Z,1.50
2017-10-21T17:04:36.232Z,1.50
2017-10-21T17:07:02.478Z,1.57
2017-10-21T17:09:29.049Z,1.33
2017-10-21T17:11:55.360Z,1.40
2017-10-21T17:14:21.635Z,1.80
2017-10-21T17:16:48.351Z,1.40
2017-10-21T17:19:14.611Z,1.30
2017-10-21T17:21:40.872Z,1.50
2017-10-21T17:24:07.173Z,1.43
2017-10-21T17:26:33.435Z,1.33
2017-10-21T17:28:59.667Z,1.33
2017-10-21T17:31:25.959Z,1.70
2017-10-21T17:33:52.232Z,1.47
2017-10-21T17:36:18.730Z,1.50
2017-10-21T17:38:46.036Z,1.33
2017-10-21T17:41:12.275Z,1.40
2017-10-21T17:43:38.542Z,1.20
2017-10-21T17:46:05.280Z,1.40
2017-10-21T17:48:31.512Z,1.33
2017-10-21T17:50:57.809Z,1.40
2017-10-21T17:53:24.246Z,1.30
2017-10-21T17:55:50.464Z,1.30
2017-10-21T17:58:16.712Z,1.73
2017-10-21T18:00:43.431Z,1.70
2017-10-21T18:03:09.692Z,1.43
2017-10-21T18:05:35.920Z,1.33
2017-10-21T18:08:02.224Z,1.40
2017-10-21T18:10:28.478Z,1.50
2017-10-21T18:12:54.727Z,1.50
2017-10-21T18:15:21.107Z,1.57
2017-10-21T18:17:47.353Z,1.30
2017-10-21T18:20:13.569Z,1.30
2017-10-21T18:22:40.245Z,1.60
2017-10-21T18:25:06.503Z,1.20
2017-10-21T18:27:32.745Z,1.60
2017-10-21T18:29:59.135Z,1.10
2017-10-21T18:32:25.357Z,1.23
2017-10-21T18:34:51.601Z,1.50
2017-10-21T18:37:17.908Z,1.40
2017-10-21T18:39:44.162Z,1.40
2017-10-21T18:42:10.418Z,1.40
2017-10-21T18:44:37.074Z,1.40
2017-10-21T18:47:03.340Z,1.37
2017-10-21T18:49:29.591Z,1.20
2017-10-21T18:51:55.975Z,1.40
2017-10-21T18:54:22.254Z,1.30
2017-10-21T18:56:48.497Z,1.20
2017-10-21T18:59:14.776Z,1.47
2017-10-21T19:01:40.995Z,1.40
2017-10-21T19:04:07.222Z,1.30
2017-10-21T19:06:33.602Z,1.40
2017-10-21T19:08:59.853Z,1.23
2017-10-21T19:11:26.440Z,1.50
2017-10-21T19:13:52.758Z,1.37
2017-10-21T19:16:19.001Z,1.40
2017-10-21T19:18:45.237Z,1.30
2017-10-21T19:21:11.520Z,1.70
2017-10-21T19:23:37.778Z,1.40
2017-10-21T19:26:04.030Z,1.53
2017-10-21T19:28:30.423Z,1.40
2017-10-21T19:30:56.669Z,1.80
2017-10-21T19:33:22.967Z,1.33
2017-10-21T19:35:49.942Z,1.40
2017-10-21T19:38:16.202Z,1.10
2017-10-21T19:40:42.485Z,1.20
2017-10-21T19:43:08.881Z,1.40
2017-10-21T19:45:35.151Z,1.43
2017-10-21T19:48:01.384Z,1.30
2017-10-21T19:50:27.740Z,1.30
2017-10-21T19:52:54.367Z,1.47
2017-10-21T19:55:20.898Z,1.60
2017-10-21T19:57:47.205Z,1.27
2017-10-21T20:00:13.431Z,1.63
2017-10-21T20:02:39.729Z,1.53
2017-10-21T20:05:05.998Z,1.40
2017-10-21T20:07:32.268Z,1.17
2017-10-21T20:09:58.987Z,1.03
2017-10-21T20:12:25.218Z,1.30
2017-10-21T20:14:51.446Z,1.30
2017-10-21T20:17:18.033Z,1.30
2017-10-21T20:19:44.280Z,1.20
2017-10-21T20:22:10.519Z,1.27
2017-10-21T20:24:38.259Z,1.40
2017-10-21T20:27:04.497Z,1.33
2017-10-21T20:29:30.742Z,1.70
2017-10-21T20:31:57.157Z,1.20
2017-10-21T20:34:23.732Z,1.47
2017-10-21T20:36:56.071Z,1.60
2017-10-21T20:39:22.456Z,1.30
2017-10-21T20:41:49.078Z,1.50
2017-10-21T20:44:15.326Z,1.30
2017-10-21T20:46:41.657Z,1.50
2017-10-21T20:49:07.927Z,1.23
2017-10-21T20:51:34.179Z,1.50
2017-10-21T20:54:00.494Z,1.60
2017-10-21T20:56:26.736Z,1.30
2017-10-21T20:58:53.403Z,1.20
2017-10-21T21:01:19.654Z,1.37
2017-10-21T21:03:45.958Z,1.20
2017-10-21T21:06:12.646Z,1.40
2017-10-21T21:08:38.887Z,1.20
2017-10-21T21:11:05.224Z,1.27
2017-10-21T21:13:31.617Z,1.43
2017-10-21T21:15:57.862Z,1.40
2017-10-21T21:18:24.108Z,1.30
2017-10-21T21:20:50.464Z,1.17
2017-10-21T21:23:16.685Z,1.10
2017-10-21T21:25:42.946Z,1.50
2017-10-21T21:28:09.707Z,1.00
2017-10-21T21:30:35.989Z,1.10
2017-10-21T21:33:02.222Z,1.10
2017-10-21T21:35:29.012Z,1.50
2017-10-21T21:37:55.262Z,1.20
2017-10-21T21:40:21.587Z,1.30
2017-10-21T21:42:47.884Z,1.27
2017-10-21T21:45:14.378Z,1.37
2017-10-21T21:47:40.921Z,1.43
2017-10-21T21:50:07.283Z,1.10
2017-10-21T21:52:33.550Z,1.00
2017-10-21T21:54:59.761Z,1.30
2017-10-21T21:57:25.999Z,1.30
2017-10-21T21:59:52.172Z,1.57
2017-10-21T22:02:18.365Z,1.20
2017-10-21T22:04:51.770Z,1.50
2017-10-21T22:07:17.974Z,1.40
2017-10-21T22:09:44.159Z,1.30
2017-10-21T22:12:10.494Z,1.30
2017-10-21T22:14:36.695Z,1.23
2017-10-21T22:17:02.879Z,1.57
2017-10-21T22:19:29.189Z,1.30
2017-10-21T22:21:55.385Z,1.37
2017-10-21T22:24:21.909Z,1.27
2017-10-21T22:26:48.489Z,1.20
2017-10-21T22:29:14.674Z,1.40
2017-10-21T22:31:41.104Z,1.27
2017-10-21T22:34:07.336Z,1.20
2017-10-21T22:36:33.597Z,1.40
2017-10-21T22:38:59.798Z,1.20
2017-10-21T22:41:26.031Z,1.30
2017-10-21T22:43:52.294Z,1.20
2017-10-21T22:46:18.781Z,1.40
2017-10-21T22:48:45.127Z,1.30
2017-10-21T22:51:11.317Z,1.20
2017-10-21T22:53:37.499Z,1.20
2017-10-21T22:56:03.744Z,1.30
2017-10-21T22:58:29.924Z,1.30
2017-10-21T23:00:56.101Z,1.17
2017-10-21T23:03:22.334Z,1.20
2017-10-21T23:05:48.771Z,1.20
2017-10-21T23:08:15.246Z,1.23
2017-10-21T23:10:41.612Z,1.30
2017-10-21T23:13:07.806Z,1.40
2017-10-21T23:15:33.973Z,1.20
2017-10-21T23:18:00.232Z,1.17
2017-10-21T23:20:26.423Z,1.30
2017-10-21T23:22:52.613Z,1.20
2017-10-21T23:25:18.862Z,1.20
2017-10-21T23:27:45.060Z,1.40
2017-10-21T23:30:11.505Z,1.40
2017-10-21T23:32:38.191Z,1.60
2017-10-21T23:35:04.446Z,1.40
2017-10-21T23:37:30.901Z,1.27
2017-10-21T23:39:57.232Z,1.30
2017-10-21T23:42:23.421Z,1.13
2017-10-21T23:44:49.638Z,1.30
2017-10-21T23:47:16.546Z,1.07
2017-10-21T23:49:42.838Z,1.20
2017-10-21T23:52:09.298Z,1.10
2017-10-21T23:54:35.698Z,1.20
2017-10-21T23:57:01.883Z,1.20
2017-10-21T23:59:28.065Z,1.23
